• Join FlightAware (Why Join?)
  • Login
  • US Flag 
Rudolph Flight #1: Scheduled 
07:52PM EST


 

Airport Tracker/Info


-or-


 

Live Flight TrackerFlight Track Log ✈ N449ND ✈ 31-May-2014 ✈ KFLL - KFPR

Flight Track Log - Related Links

Times and Time Zones

All times are in EDT time to prevent confusion due to time zone crossing. See the N449ND flight status page for this flight to view local times or setup timezone preferences in your user account.

Time Position Orientation Groundspeed Altitude Reporting Facility
EDT Latitude Longitude Course Direction KTS MPH feet Rate Location/Type
08:40PM 26.1033 -80.1308 352° North 98 113 1,200  Level Miami Center
08:41PM 26.1125 -80.1325 351° North 94 108 1,300 420 Climbing Miami Center
08:41PM 26.1300 -80.1375 346° North 85 98 1,700 480 Climbing Miami Center
08:42PM 26.1364 -80.1392 347° North 92 106 1,800 540 Climbing Miami Center
08:42PM 26.1528 -80.1439 345° North 88 101 2,200 540 Climbing Miami Center
08:43PM 26.1600 -80.1453 350° North 91 105 2,400 480 Climbing Miami Center
08:43PM 26.1711 -80.1500 339° North 89 102 2,600 480 Climbing Miami Center
08:44PM 26.1819 -80.1528 347° North 83 96 2,900 480 Climbing Miami Center
08:44PM 26.1939 -80.1564 345° North 83 96 3,100 360 Climbing Miami Center
08:45PM 26.2835 -80.1833 352° North  Level FlightAware Approximate
08:45PM 26.2047 -80.1589 348° North 85 98 3,300  Level Miami Center
08:45PM 26.2183 -80.1653 337° Northwest 84 97 3,600 480 Climbing Miami Center
08:46PM 26.3196 -80.1894 352° North  Level FlightAware Approximate
08:46PM 26.2278 -80.1650 North 85 98 3,800  Level Miami Center
08:46PM 26.2414 -80.1669 353° North 83 96 4,100 480 Climbing Miami Center
08:47PM 26.2550 -80.1683 355° North 84 97 4,300 420 Climbing Miami Center
08:47PM 26.2683 -80.1714 348° North 86 99 4,600 360 Climbing Miami Center
08:48PM 26.2775 -80.1725 354° North 84 97 4,700 240 Climbing Miami Center
08:48PM 26.2911 -80.1753 350° North 84 97 4,900 360 Climbing Miami Center
08:49PM 26.3025 -80.1789 344° North 84 97 5,100 360 Climbing Miami Center
08:50PM 26.3267 -80.1847 348° North 86 99 5,500 240 Climbing Miami Center
08:51PM 26.3525 -80.1847 360° North 94 108 5,700  Climbing Miami Center
08:52PM 26.3839 -80.1844 360° North 113 130 5,600 -120 Descending Miami Center
08:53PM 26.4156 -80.1864 357° North 116 133 5,500  Descending Miami Center
08:54PM 26.4442 -80.1908 352° North 105 121 5,600  Climbing Miami Center
08:55PM 26.4756 -80.1983 348° North 110 127 5,600  Level Miami Center
08:56PM 26.5042 -80.2050 348° North 107 123 5,600  Level Miami Center
08:57PM 26.5336 -80.2103 351° North 110 127 5,600 -60 Level Miami Center
08:58PM 26.5631 -80.2192 345° North 108 124 5,500 -60 Descending Miami Center
08:59PM 26.5928 -80.2231 353° North 107 123 5,500  Level Miami Center
09:00PM 26.6239 -80.2236 359° North 104 120 5,500  Level Miami Center
09:01PM 26.6500 -80.2125 21° North 101 116 5,500  Level Miami Center
09:02PM 26.6794 -80.2236 341° North 108 124 5,500 120 Level Miami Center
09:03PM 26.7078 -80.2328 344° North 108 124 5,800 240 Climbing Miami Center
09:04PM 26.7325 -80.2367 352° North 94 108 6,100 300 Climbing Miami Center
09:05PM 26.7581 -80.2439 346° North 93 107 6,500 240 Climbing Miami Center
09:06PM 26.7856 -80.2494 350° North 93 107 6,600  Climbing Miami Center
09:07PM 26.8161 -80.2564 349° North 111 128 6,500  Descending Miami Center
09:08PM 26.8417 -80.2367 35° Northeast 118 136 6,600  Climbing Miami Center
09:09PM 26.8711 -80.2431 349° North 113 130 6,600 -60 Level Miami Center
09:10PM 26.9044 -80.2542 343° North 118 136 6,500  Descending Miami Center
09:11PM 26.9317 -80.2636 343° North 109 125 6,600  Climbing Miami Center
09:12PM 26.9600 -80.2736 343° North 104 120 6,600  Level Miami Center
09:13PM 26.9892 -80.2889 335° Northwest 107 123 6,600 -60 Level Miami Center
09:14PM 27.0172 -80.3003 340° North 109 125 6,500 -60 Descending Miami Center
09:15PM 27.0475 -80.3122 341° North 111 128 6,500  Level Miami Center
09:16PM 27.0781 -80.3161 354° North 107 123 6,600  Climbing Miami Center
09:17PM 27.1081 -80.3236 347° North 108 124 6,500 -60 Descending Miami Center
09:18PM 27.1403 -80.3308 349° North 112 129 6,500 -300 Level Miami Center
09:19PM 27.1703 -80.3331 356° North 112 129 6,000 -1,080 Descending Miami Center
09:20PM 27.2061 -80.3389 352° North 122 140 4,400 -1,620 Descending Miami Center
09:21PM 27.2425 -80.3403 358° North 122 140 2,800 -1,620 Descending Miami Center